Time;durP1;ratioP1;P1;durP2;ratioP2;P2;SDS_P1;SDS_P2;PMS_P1;PMS_P2;Temp;Humidity;BMP_temperature;BMP_pressure;BME280_temperature;BME280_humidity;BME280_pressure;Samples;Min_cycle;Max_cycle;Signal;HPM_P1;HPM_P2
2023/05/17 00:07:30;;;;;;;2.77;0.83;;;;;;;6.56;58.91;101244.38;20169462;29;20222;-77
2023/05/17 00:17:33;;;;;;;4.50;1.50;;;;;;;6.05;59.36;101240.22;20173035;29;20194;-89
2023/05/17 00:27:35;;;;;;;2.50;1.33;;;;;;;5.98;59.72;101249.78;20151930;29;20230;-83
2023/05/17 00:37:37;;;;;;;3.73;1.70;;;;;;;6.26;58.98;101264.19;20172435;29;20249;-82
2023/05/17 00:47:39;;;;;;;6.10;1.30;;;;;;;6.04;60.07;101252.56;20142828;29;20230;-78
2023/05/17 00:57:42;;;;;;;4.87;2.00;;;;;;;6.13;60.09;101253.63;20198964;29;20234;-78
2023/05/17 01:07:44;;;;;;;3.87;1.80;;;;;;;6.13;59.67;101248.00;20175666;29;20659;-78
2023/05/17 01:17:57;;;;;;;3.13;1.93;;;;;;;5.63;62.52;101256.41;20188052;29;20238;-78
2023/05/17 01:28:01;;;;;;;3.93;1.67;;;;;;;5.54;62.76;101258.13;20192097;29;20293;-80
2023/05/17 01:38:03;;;;;;;2.50;1.70;;;;;;;5.42;63.84;101268.81;20190515;29;20230;-87
2023/05/17 01:48:27;;;;;;;3.90;2.10;;;;;;;5.57;63.48;101271.56;20196758;29;20515;-82
2023/05/17 01:58:39;;;;;;;4.27;1.73;;;;;;;5.24;64.27;101278.63;20155649;29;1064846;-78
2023/05/17 02:08:42;;;;;;;6.90;2.53;;;;;;;5.29;63.95;101284.19;20184398;29;20868;-78
2023/05/17 02:18:44;;;;;;;4.80;2.53;;;;;;;5.07;65.14;101292.09;20188859;29;20210;-82
2023/05/17 02:28:46;;;;;;;5.13;2.10;;;;;;;5.08;64.49;101296.56;20202336;29;20702;-86
2023/05/17 02:38:49;;;;;;;9.63;4.23;;;;;;;5.10;64.61;101297.13;20191317;29;20663;-81
2023/05/17 02:48:51;;;;;;;9.80;5.23;;;;;;;5.37;63.66;101304.38;20189934;29;20234;-85
2023/05/17 02:58:56;;;;;;;9.60;4.67;;;;;;;5.19;64.58;101314.19;20199529;29;20197;-79
2023/05/17 03:08:58;;;;;;;8.60;4.23;;;;;;;5.09;64.59;101320.66;20170389;29;20222;-82
2023/05/17 03:19:00;;;;;;;5.90;3.57;;;;;;;5.15;65.82;101322.31;20173127;29;20274;-78
2023/05/17 03:29:04;;;;;;;9.50;3.40;;;;;;;5.09;65.99;101331.84;20191142;29;20214;-80
2023/05/17 03:39:06;;;;;;;6.80;3.00;;;;;;;5.45;65.15;101341.03;20157698;29;20242;-89
2023/05/17 03:49:10;;;;;;;7.20;3.67;;;;;;;5.36;65.79;101341.88;20165470;29;20282;-80
2023/05/17 03:59:14;;;;;;;8.97;3.10;;;;;;;5.79;64.86;101357.22;20162074;29;20571;-77
2023/05/17 04:09:17;;;;;;;7.40;3.43;;;;;;;5.44;66.74;101358.97;20155357;29;20226;-79
2023/05/17 04:19:22;;;;;;;9.20;4.23;;;;;;;5.84;65.41;101366.44;20162568;29;20231;-86
2023/05/17 04:29:25;;;;;;;13.07;4.57;;;;;;;5.90;65.83;101382.13;20180233;29;20281;-81
2023/05/17 04:39:27;;;;;;;9.37;3.80;;;;;;;6.16;64.88;101396.88;20176809;29;20254;-81
2023/05/17 04:49:33;;;;;;;14.90;5.17;;;;;;;5.99;66.45;101407.59;20170207;29;20229;-83
2023/05/17 04:59:36;;;;;;;11.23;4.05;;;;;;;6.22;64.84;101414.50;20185398;29;20198;-86
2023/05/17 05:09:39;;;;;;;10.40;3.80;;;;;;;6.30;63.61;101420.38;20180811;29;20562;-87
2023/05/17 05:19:44;;;;;;;12.10;4.50;;;;;;;6.57;62.93;101431.22;20168275;29;20226;-85
2023/05/17 05:29:47;;;;;;;13.73;3.80;;;;;;;6.32;62.82;101442.50;20149962;29;20219;-85
2023/05/17 05:39:51;;;;;;;9.93;3.43;;;;;;;6.16;61.89;101461.34;20181169;29;20206;-92
2023/05/17 05:49:54;;;;;;;10.20;3.03;;;;;;;6.05;60.72;101475.69;20179561;29;20639;-88
2023/05/17 05:59:58;;;;;;;12.80;2.60;;;;;;;6.05;60.08;101478.50;20212025;23;20202;-91
2023/05/17 06:10:00;;;;;;;13.73;3.40;;;;;;;5.99;59.89;101492.50;20344147;29;20279;-79
2023/05/17 06:20:03;;;;;;;15.40;4.37;;;;;;;6.79;57.06;101495.34;20331953;29;20233;-78
2023/05/17 06:30:06;;;;;;;11.30;3.53;;;;;;;6.33;57.44;101505.88;20336196;29;20521;-79
2023/05/17 06:40:09;;;;;;;8.87;2.40;;;;;;;6.95;55.18;101507.34;20329655;29;20204;-81
2023/05/17 06:50:18;;;;;;;6.83;2.10;;;;;;;6.63;52.35;101503.00;20342140;29;20541;-83
2023/05/17 07:00:20;;;;;;;7.60;1.47;;;;;;;7.11;52.17;101506.09;20313843;29;20224;-86
2023/05/17 07:10:23;;;;;;;8.07;1.53;;;;;;;7.44;47.91;101512.91;20298486;29;20633;-83
2023/05/17 07:20:25;;;;;;;7.87;1.37;;;;;;;7.69;46.29;101515.53;20296092;29;20201;-83
2023/05/17 07:30:27;;;;;;;5.43;1.73;;;;;;;7.96;45.56;101525.41;20270997;29;20233;-81
2023/05/17 07:40:29;;;;;;;7.15;1.23;;;;;;;8.09;45.45;101534.00;20269612;29;20226;-79
2023/05/17 07:50:31;;;;;;;8.23;1.38;;;;;;;8.16;44.36;101542.06;20264626;29;20296;-85
2023/05/17 08:00:33;;;;;;;6.25;1.30;;;;;;;7.83;42.59;101543.81;20273120;29;20237;-82
2023/05/17 08:10:36;;;;;;;8.00;1.10;;;;;;;9.05;41.80;101548.91;20267569;29;20697;-85
2023/05/17 08:20:39;;;;;;;5.68;1.30;;;;;;;9.42;40.39;101550.94;20270423;29;20246;-78
2023/05/17 08:30:41;;;;;;;7.07;1.40;;;;;;;9.16;39.38;101563.72;20262975;29;20245;-78
2023/05/17 08:40:43;;;;;;;5.57;1.30;;;;;;;8.68;40.50;101569.38;20262846;29;20210;-77
2023/05/17 08:50:46;;;;;;;5.78;1.13;;;;;;;8.72;42.49;101572.44;20258230;29;20256;-77
2023/05/17 09:00:48;;;;;;;8.32;1.23;;;;;;;8.12;41.88;101574.75;20264929;29;20280;-78
2023/05/17 09:10:51;;;;;;;8.45;1.13;;;;;;;8.67;40.12;101581.78;20258339;29;20289;-80
2023/05/17 09:20:53;;;;;;;4.80;1.17;;;;;;;9.66;38.17;101569.78;20274812;29;20201;-77
2023/05/17 09:30:55;;;;;;;5.60;1.13;;;;;;;9.79;37.67;101563.34;20299059;29;20269;-77
2023/05/17 09:41:01;;;;;;;6.82;1.25;;;;;;;9.89;36.74;101574.44;20246765;29;20193;-77
2023/05/17 09:51:04;;;;;;;5.28;0.90;;;;;;;9.63;37.79;101564.72;20300767;29;20290;-76
2023/05/17 10:01:08;;;;;;;9.20;1.00;;;;;;;9.40;36.59;101564.50;20244533;29;20229;-77
2023/05/17 10:11:10;;;;;;;4.50;1.10;;;;;;;10.54;35.61;101557.50;20263494;29;20221;-78
2023/05/17 10:21:13;;;;;;;9.88;1.40;;;;;;;9.45;38.75;101561.56;20266813;29;20283;-77
2023/05/17 10:31:16;;;;;;;6.83;1.30;;;;;;;10.61;34.67;101540.94;20265604;29;20221;-77
2023/05/17 10:41:20;;;;;;;5.25;0.95;;;;;;;9.82;35.52;101548.63;20247614;29;20197;-76
2023/05/17 10:51:25;;;;;;;4.68;1.48;;;;;;;10.89;34.37;101548.28;20295480;29;20710;-76
2023/05/17 11:01:59;;;;;;;11.82;1.30;;;;;;;10.42;34.45;101543.84;20279031;29;20650;-83
2023/05/17 11:12:06;;;;;;;5.97;1.10;;;;;;;11.16;33.47;101529.59;20261907;29;20284;-77
2023/05/17 11:22:11;;;;;;;5.75;0.82;;;;;;;10.40;35.15;101546.16;20250295;29;20374;-78
2023/05/17 11:32:13;;;;;;;4.22;1.08;;;;;;;10.36;32.46;101533.78;20269541;29;20221;-77
2023/05/17 11:42:24;;;;;;;6.53;1.40;;;;;;;11.78;34.28;101535.50;20245132;29;20674;-78
2023/05/17 11:52:27;;;;;;;7.97;1.40;;;;;;;11.81;31.72;101529.19;20288310;29;20229;-77
2023/05/17 12:02:31;;;;;;;5.05;0.88;;;;;;;11.52;32.13;101538.94;20239788;29;20249;-79
2023/05/17 12:12:33;;;;;;;4.93;0.80;;;;;;;12.67;30.19;101524.03;20265451;29;20246;-78
2023/05/17 12:22:53;;;;;;;4.90;1.02;;;;;;;12.78;31.83;101514.06;20262150;29;20472;-77
2023/05/17 12:32:56;;;;;;;5.28;0.90;;;;;;;11.83;32.22;101530.56;20261644;29;20761;-77
2023/05/17 12:43:04;;;;;;;7.15;1.25;;;;;;;12.74;31.48;101525.22;20238254;29;20252;-79
2023/05/17 12:53:07;;;;;;;6.75;1.45;;;;;;;11.83;32.46;101535.38;20288437;29;20374;-78
2023/05/17 13:03:10;;;;;;;4.67;0.80;;;;;;;12.23;31.51;101531.50;20275911;29;20233;-78
2023/05/17 13:13:19;;;;;;;6.43;1.27;;;;;;;12.63;30.25;101518.19;20246111;29;20284;-80
2023/05/17 13:23:21;;;;;;;4.93;0.90;;;;;;;12.04;30.17;101522.34;20261188;29;20933;-80
2023/05/17 13:33:23;;;;;;;8.85;1.10;;;;;;;12.96;30.00;101515.78;20268315;29;20257;-82
2023/05/17 13:43:26;;;;;;;5.38;0.63;;;;;;;12.59;29.97;101507.84;20268928;29;20205;-79
2023/05/17 13:53:28;;;;;;;5.60;0.95;;;;;;;12.91;28.68;101501.78;20265877;29;20630;-82
2023/05/17 14:03:30;;;;;;;4.97;0.95;;;;;;;12.97;30.00;101505.28;20267752;29;20273;-79
2023/05/17 14:13:32;;;;;;;4.97;1.30;;;;;;;12.35;30.69;101494.09;20270065;29;20221;-81
2023/05/17 14:23:35;;;;;;;6.38;2.03;;;;;;;12.88;29.51;101496.75;20269643;29;20197;-82
2023/05/17 14:33:37;;;;;;;6.47;1.38;;;;;;;12.28;29.23;101493.72;20269521;29;20217;-77
2023/05/17 14:43:39;;;;;;;5.45;1.77;;;;;;;13.18;28.27;101485.66;20271855;29;20201;-75
2023/05/17 14:53:42;;;;;;;7.53;1.38;;;;;;;13.24;27.39;101487.16;20262660;29;20224;-75
2023/05/17 15:03:44;;;;;;;5.35;1.60;;;;;;;12.80;29.91;101500.41;20270555;29;20571;-75
2023/05/17 15:13:47;;;;;;;9.32;1.33;;;;;;;12.38;29.38;101499.94;20268217;29;20249;-76
2023/05/17 15:23:49;;;;;;;6.65;1.52;;;;;;;12.84;29.26;101490.06;20265451;29;20229;-78
2023/05/17 15:33:52;;;;;;;5.80;3.08;;;;;;;12.05;29.84;101492.88;20265697;29;20245;-75
2023/05/17 15:43:54;;;;;;;11.75;3.47;;;;;;;12.41;31.53;101494.78;20265983;29;20209;-82
2023/05/17 15:53:56;;;;;;;6.53;1.95;;;;;;;12.15;32.01;101500.28;20265372;29;20269;-77
2023/05/17 16:03:58;;;;;;;6.57;1.95;;;;;;;11.09;31.47;101500.97;20255323;29;20225;-81
2023/05/17 16:14:00;;;;;;;7.18;2.60;;;;;;;11.60;32.10;101495.78;20268467;29;20225;-80
2023/05/17 16:24:05;;;;;;;8.15;1.88;;;;;;;11.44;32.57;101500.13;20274347;29;20197;-78
2023/05/17 16:34:07;;;;;;;6.78;2.20;;;;;;;10.92;31.75;101513.75;20239778;29;20225;-80
2023/05/17 16:44:10;;;;;;;6.60;2.72;;;;;;;11.36;33.02;101512.22;20287352;29;20254;-78
2023/05/17 16:54:12;;;;;;;7.28;2.03;;;;;;;11.52;31.33;101521.16;20257640;29;20233;-76
2023/05/17 17:04:14;;;;;;;9.77;2.17;;;;;;;11.06;31.92;101529.84;20260087;29;20236;-83
2023/05/17 17:14:16;;;;;;;10.45;1.83;;;;;;;10.97;32.92;101526.94;20261769;29;20280;-80
2023/05/17 17:24:19;;;;;;;10.98;2.30;;;;;;;11.26;33.08;101529.38;20255916;29;20198;-77
2023/05/17 17:34:21;;;;;;;6.38;1.60;;;;;;;10.28;33.08;101535.38;20255389;29;20225;-80
2023/05/17 17:44:23;;;;;;;7.20;1.48;;;;;;;10.14;34.29;101542.13;20273621;29;20205;-77
2023/05/17 17:54:25;;;;;;;8.15;1.83;;;;;;;10.65;33.27;101541.16;20293307;29;20280;-80
2023/05/17 18:04:28;;;;;;;6.05;1.42;;;;;;;10.61;32.54;101546.59;20293373;29;20225;-77
2023/05/17 18:14:30;;;;;;;8.17;1.83;;;;;;;10.70;32.73;101550.38;20267767;29;20222;-78
2023/05/17 18:24:32;;;;;;;10.15;1.70;;;;;;;9.94;34.24;101551.81;20271255;29;20663;-79
2023/05/17 18:34:35;;;;;;;3.13;0.98;;;;;;;9.85;33.26;101567.75;20237199;29;20277;-88
2023/05/17 18:44:40;;;;;;;8.13;1.58;;;;;;;9.97;34.22;101553.16;20287393;29;20547;-78
2023/05/17 18:54:42;;;;;;;6.03;1.25;;;;;;;9.72;34.49;101560.06;20259196;29;20623;-76
2023/05/17 19:04:44;;;;;;;5.20;1.10;;;;;;;9.37;35.81;101565.09;20267533;29;20261;-76
2023/05/17 19:14:47;;;;;;;7.93;1.87;;;;;;;8.81;36.85;101577.09;20262303;29;20634;-76
2023/05/17 19:24:49;;;;;;;5.97;1.52;;;;;;;8.99;37.46;101583.94;20279521;29;20507;-76
2023/05/17 19:34:51;;;;;;;9.48;2.10;;;;;;;8.58;37.84;101583.56;20264707;29;20706;-76
2023/05/17 19:44:54;;;;;;;7.53;1.48;;;;;;;8.15;39.15;101594.69;20284954;29;20201;-76
2023/05/17 19:54:56;;;;;;;5.85;1.05;;;;;;;8.00;40.88;101596.81;20267869;29;20220;-76
2023/05/17 20:05:01;;;;;;;10.20;1.63;;;;;;;7.56;41.15;101606.09;20277696;29;20226;-78
2023/05/17 20:15:05;;;;;;;9.02;1.50;;;;;;;8.20;39.48;101601.41;20262274;29;20630;-76
2023/05/17 20:25:07;;;;;;;5.20;1.05;;;;;;;7.43;41.40;101616.00;20252113;29;20197;-79
2023/05/17 20:35:10;;;;;;;3.53;1.20;;;;;;;7.58;41.97;101619.84;20280951;29;20562;-76
2023/05/17 20:45:16;;;;;;;5.67;1.07;;;;;;;7.22;43.36;101625.69;20294910;29;20222;-75
2023/05/17 20:55:18;;;;;;;6.38;1.30;;;;;;;7.20;42.86;101625.13;20296243;29;20268;-77
2023/05/17 21:05:20;;;;;;;3.30;1.08;;;;;;;6.76;43.36;101624.16;20269472;29;20277;-79
2023/05/17 21:15:23;;;;;;;4.67;1.17;;;;;;;6.49;43.78;101630.94;20275874;29;20641;-87
2023/05/17 21:25:26;;;;;;;8.07;1.38;;;;;;;6.64;44.17;101628.13;20269316;29;20208;-76
2023/05/17 21:35:28;;;;;;;6.77;1.37;;;;;;;6.49;44.15;101636.56;20295015;29;20221;-76
2023/05/17 21:45:30;;;;;;;7.07;1.70;;;;;;;6.24;45.57;101639.38;20271616;29;20447;-76
2023/05/17 21:55:32;;;;;;;4.33;1.43;;;;;;;6.08;45.56;101648.91;20270742;29;20638;-76
2023/05/17 22:05:55;;;;;;;5.57;1.30;;;;;;;6.26;45.12;101631.53;20272229;29;20578;-76
2023/05/17 22:15:57;;;;;;;4.50;1.50;;;;;;;6.03;46.18;101652.56;20286691;29;20220;-76
2023/05/17 22:25:59;;;;;;;4.70;1.40;;;;;;;5.54;46.59;101643.84;20279350;29;20285;-76
2023/05/17 22:36:02;;;;;;;5.13;1.53;;;;;;;5.96;46.37;101649.19;20281410;29;20217;-76
2023/05/17 22:46:05;;;;;;;8.37;1.30;;;;;;;5.60;47.32;101656.72;20285314;29;20256;-76
2023/05/17 22:56:07;;;;;;;5.73;1.30;;;;;;;5.61;46.40;101658.41;20285446;29;20311;-76
2023/05/17 23:06:09;;;;;;;2.97;0.80;;;;;;;5.55;47.77;101663.13;20291530;29;20257;-76
2023/05/17 23:16:12;;;;;;;4.43;1.20;;;;;;;5.48;47.94;101661.72;20285062;29;20233;-76
2023/05/17 23:26:16;;;;;;;4.00;1.40;;;;;;;5.57;47.74;101660.91;20280344;29;20284;-76
2023/05/17 23:36:20;;;;;;;6.20;1.30;;;;;;;5.54;48.43;101664.25;20278722;29;20249;-76
2023/05/17 23:46:22;;;;;;;6.20;1.83;;;;;;;4.67;51.05;101675.31;20277531;29;20255;-76
2023/05/17 23:56:25;;;;;;;5.37;2.00;;;;;;;4.83;50.54;101665.91;20274393;29;20227;-75
